createdAt,value
2019-05-09T00:00:41.145Z,9.30
2019-05-09T00:03:09.405Z,9.20
2019-05-09T00:05:37.746Z,9.10
2019-05-09T00:08:05.976Z,9.10
2019-05-09T00:10:39.348Z,9.10
2019-05-09T00:13:04.152Z,9.10
2019-05-09T00:15:33.266Z,9.00
2019-05-09T00:18:03.672Z,8.80
2019-05-09T00:20:39.155Z,8.70
2019-05-09T00:23:07.384Z,8.80
2019-05-09T00:25:35.619Z,8.70
2019-05-09T00:28:04.419Z,8.60
2019-05-09T00:30:50.333Z,8.70
2019-05-09T00:33:20.201Z,8.70
2019-05-09T00:35:48.443Z,8.60
2019-05-09T00:38:18.044Z,8.60
2019-05-09T00:40:55.954Z,8.50
2019-05-09T00:43:16.239Z,8.50
2019-05-09T00:45:46.110Z,8.50
2019-05-09T00:48:15.985Z,8.60
2019-05-09T00:50:44.246Z,8.40
2019-05-09T00:53:13.803Z,8.40
2019-05-09T00:55:43.655Z,8.40
2019-05-09T00:58:13.529Z,8.50
2019-05-09T01:00:43.905Z,8.50
2019-05-09T01:03:13.980Z,8.50
2019-05-09T01:05:43.664Z,8.50
2019-05-09T01:08:13.699Z,8.40
2019-05-09T01:10:43.638Z,8.40
2019-05-09T01:13:14.056Z,8.30
2019-05-09T01:15:43.961Z,8.30
2019-05-09T01:18:13.267Z,8.30
2019-05-09T01:20:43.879Z,8.30
2019-05-09T01:23:13.589Z,8.30
2019-05-09T01:25:43.487Z,8.30
2019-05-09T01:28:13.789Z,8.40
2019-05-09T01:30:43.682Z,8.30
2019-05-09T01:33:15.706Z,8.40
2019-05-09T01:35:43.983Z,8.40
2019-05-09T01:38:14.268Z,8.40
2019-05-09T01:40:43.850Z,8.50
2019-05-09T01:43:13.838Z,8.50
2019-05-09T01:45:43.162Z,8.40
2019-05-09T01:48:13.962Z,8.40
2019-05-09T01:50:43.144Z,8.30
2019-05-09T01:53:13.445Z,8.20
2019-05-09T01:56:00.428Z,8.10
2019-05-09T01:58:30.022Z,8.10
2019-05-09T02:00:58.325Z,8.10
2019-05-09T02:03:26.548Z,8.00
2019-05-09T02:05:54.818Z,8.00
2019-05-09T02:08:23.654Z,8.00
2019-05-09T02:10:54.076Z,8.00
2019-05-09T02:13:23.145Z,8.10
2019-05-09T02:16:05.279Z,8.10
2019-05-09T02:18:35.157Z,8.10
2019-05-09T02:21:04.006Z,8.10
2019-05-09T02:23:33.934Z,8.10
2019-05-09T02:26:03.957Z,8.10
2019-05-09T02:28:34.101Z,8.10
2019-05-09T02:31:05.153Z,8.10
2019-05-09T02:33:34.782Z,8.10
2019-05-09T02:36:02.514Z,8.20
2019-05-09T02:38:30.768Z,8.20
2019-05-09T02:40:59.658Z,8.20
2019-05-09T02:43:29.148Z,8.20
2019-05-09T02:46:02.004Z,8.30
2019-05-09T02:48:30.237Z,8.30
2019-05-09T02:51:00.143Z,8.20
2019-05-09T02:53:29.075Z,8.20
2019-05-09T02:55:58.383Z,8.20
2019-05-09T02:58:28.629Z,8.20
2019-05-09T03:01:01.522Z,8.30
2019-05-09T03:03:39.219Z,8.20
2019-05-09T03:06:09.110Z,8.30
2019-05-09T03:08:38.368Z,8.30
2019-05-09T03:11:09.818Z,8.20
2019-05-09T03:13:39.504Z,8.20
2019-05-09T03:16:08.719Z,8.20
2019-05-09T03:18:38.877Z,8.20
2019-05-09T03:21:09.114Z,8.20
2019-05-09T03:23:38.834Z,8.20
2019-05-09T03:26:09.203Z,8.20
2019-05-09T03:28:39.197Z,8.20
2019-05-09T03:31:09.819Z,8.20
2019-05-09T03:33:40.613Z,8.20
2019-05-09T03:36:08.193Z,8.10
2019-05-09T03:38:37.705Z,8.10
2019-05-09T03:41:08.327Z,8.10
2019-05-09T03:43:37.718Z,8.10
2019-05-09T03:46:07.916Z,8.00
2019-05-09T03:48:43.836Z,8.10
2019-05-09T03:51:12.069Z,8.10
2019-05-09T03:53:40.300Z,8.10
2019-05-09T03:56:10.178Z,8.00
2019-05-09T03:58:38.669Z,8.00
2019-05-09T04:01:10.396Z,8.00
2019-05-09T04:03:37.849Z,8.00
2019-05-09T04:06:08.333Z,8.00
2019-05-09T04:08:37.630Z,8.00
2019-05-09T04:11:08.373Z,8.00
2019-05-09T04:13:38.510Z,8.00
2019-05-09T04:16:07.489Z,7.90
2019-05-09T04:18:37.678Z,7.90
2019-05-09T04:21:08.276Z,7.80
2019-05-09T04:23:37.792Z,7.80
2019-05-09T04:26:07.669Z,8.00
2019-05-09T04:28:39.678Z,8.00
2019-05-09T04:31:07.357Z,8.00
2019-05-09T04:33:35.727Z,7.90
2019-05-09T04:36:03.959Z,7.90
2019-05-09T04:38:32.201Z,7.80
2019-05-09T04:41:00.460Z,7.80
2019-05-09T04:43:35.581Z,7.80
2019-05-09T04:46:01.684Z,7.80
2019-05-09T04:48:31.592Z,7.70
2019-05-09T04:51:03.094Z,7.70
2019-05-09T04:53:31.365Z,7.50
2019-05-09T04:56:01.228Z,7.60
2019-05-09T04:58:29.456Z,7.70
2019-05-09T05:01:02.044Z,7.70
2019-05-09T05:03:30.271Z,7.70
2019-05-09T05:05:58.680Z,7.80
2019-05-09T05:08:28.497Z,7.80
2019-05-09T05:10:58.245Z,7.70
2019-05-09T05:13:29.431Z,7.70
2019-05-09T05:15:57.800Z,7.70
2019-05-09T05:18:28.414Z,7.70
2019-05-09T05:20:57.569Z,7.70
2019-05-09T05:23:43.631Z,7.70
2019-05-09T05:26:11.884Z,7.80
2019-05-09T05:28:40.155Z,8.00
2019-05-09T05:31:08.389Z,8.00
2019-05-09T05:33:38.409Z,8.10
2019-05-09T05:36:14.283Z,8.10
2019-05-09T05:38:42.512Z,8.20
2019-05-09T05:41:10.785Z,8.20
2019-05-09T05:43:44.403Z,8.30
2019-05-09T05:46:22.455Z,8.40
2019-05-09T05:48:52.229Z,8.50
2019-05-09T05:51:20.476Z,8.60
2019-05-09T05:53:48.744Z,8.70
2019-05-09T05:56:17.750Z,8.90
2019-05-09T05:58:46.121Z,9.00
2019-05-09T06:01:14.407Z,9.10
2019-05-09T06:03:42.641Z,9.30
2019-05-09T06:06:10.897Z,9.40
2019-05-09T06:08:39.171Z,9.50
2019-05-09T06:11:11.905Z,9.60
2019-05-09T06:13:37.954Z,9.70
2019-05-09T06:16:08.447Z,9.80
2019-05-09T06:18:38.487Z,9.90
2019-05-09T06:21:08.831Z,10.00
2019-05-09T06:23:37.461Z,10.20
2019-05-09T06:26:09.343Z,10.30
2019-05-09T06:28:37.624Z,10.50
2019-05-09T06:31:07.537Z,10.60
2019-05-09T06:33:35.845Z,10.80
2019-05-09T06:36:04.149Z,10.90
2019-05-09T06:38:32.396Z,11.10
2019-05-09T06:41:00.717Z,11.30
2019-05-09T06:43:30.584Z,11.40
2019-05-09T06:46:18.254Z,11.50
2019-05-09T06:48:47.933Z,11.70
2019-05-09T06:51:18.890Z,11.90
2019-05-09T06:53:46.241Z,11.90
2019-05-09T06:56:14.472Z,11.90
2019-05-09T06:58:43.405Z,12.10
2019-05-09T07:01:22.233Z,12.30
2019-05-09T07:04:04.116Z,12.50
2019-05-09T07:06:33.992Z,12.70
2019-05-09T07:09:03.886Z,12.90
2019-05-09T07:11:32.117Z,12.90
2019-05-09T07:14:00.359Z,13.00
2019-05-09T07:16:28.638Z,13.10
2019-05-09T07:18:57.899Z,13.10
2019-05-09T07:21:28.637Z,13.10
2019-05-09T07:23:58.272Z,13.30
2019-05-09T07:26:34.060Z,13.60
2019-05-09T07:29:02.315Z,13.80
2019-05-09T07:31:48.544Z,13.80
2019-05-09T07:34:18.557Z,14.20
2019-05-09T07:36:47.631Z,14.50
2019-05-09T07:39:17.608Z,14.80
2019-05-09T07:41:47.834Z,15.10
2019-05-09T07:44:18.203Z,14.90
2019-05-09T07:46:53.534Z,15.00
2019-05-09T07:49:21.777Z,15.30
2019-05-09T07:51:50.087Z,15.60
2019-05-09T07:54:25.124Z,15.50
2019-05-09T07:56:48.629Z,15.70
2019-05-09T07:59:18.137Z,15.70
2019-05-09T08:01:48.666Z,15.60
2019-05-09T08:04:18.249Z,15.80
2019-05-09T08:06:48.647Z,16.30
2019-05-09T08:09:18.641Z,16.60
2019-05-09T08:11:48.305Z,16.90
2019-05-09T08:14:17.586Z,17.00
2019-05-09T08:16:47.547Z,16.70
2019-05-09T08:19:18.031Z,16.80
2019-05-09T08:21:47.944Z,17.20
2019-05-09T08:24:18.163Z,17.50
2019-05-09T08:26:47.814Z,17.60
2019-05-09T08:29:17.825Z,17.70
2019-05-09T08:31:48.361Z,17.60
2019-05-09T08:34:15.732Z,17.50
2019-05-09T08:36:43.963Z,17.70
2019-05-09T08:39:12.245Z,18.00
2019-05-09T08:41:40.487Z,18.10
2019-05-09T08:44:08.924Z,17.90
2019-05-09T08:46:37.747Z,18.10
2019-05-09T08:49:08.245Z,18.00
2019-05-09T08:51:52.982Z,17.40
2019-05-09T08:54:12.085Z,17.30
2019-05-09T08:56:40.308Z,17.50
2019-05-09T08:59:08.543Z,17.80
2019-05-09T09:01:53.909Z,18.20
2019-05-09T09:04:08.135Z,17.90
2019-05-09T09:06:37.996Z,18.00
2019-05-09T09:09:08.102Z,18.20
2019-05-09T09:11:38.526Z,18.00
2019-05-09T09:14:07.816Z,18.00
2019-05-09T09:16:37.941Z,18.30
2019-05-09T09:19:08.711Z,18.30
2019-05-09T09:21:38.650Z,18.00
2019-05-09T09:24:08.571Z,17.80
2019-05-09T09:26:38.090Z,17.70
2019-05-09T09:29:08.224Z,17.70
2019-05-09T09:31:37.837Z,17.90
2019-05-09T09:34:07.968Z,17.50
2019-05-09T09:36:35.718Z,17.20
2019-05-09T09:39:07.422Z,17.10
2019-05-09T09:41:38.323Z,17.30
2019-05-09T09:44:05.106Z,17.50
2019-05-09T09:46:33.339Z,18.10
2019-05-09T09:49:01.532Z,18.20
2019-05-09T09:51:29.770Z,18.40
2019-05-09T09:53:58.409Z,18.40
2019-05-09T09:56:28.181Z,18.90
2019-05-09T09:59:01.358Z,19.10
2019-05-09T10:01:34.148Z,19.10
2019-05-09T10:04:16.540Z,18.90
2019-05-09T10:06:33.947Z,19.10
2019-05-09T10:09:02.175Z,19.20
2019-05-09T10:11:30.368Z,19.50
2019-05-09T10:13:58.589Z,19.90
2019-05-09T10:16:44.512Z,19.80
2019-05-09T10:19:20.400Z,19.90
2019-05-09T10:21:53.156Z,20.50
2019-05-09T10:24:21.402Z,20.90
2019-05-09T10:27:09.449Z,20.80
2019-05-09T10:29:38.742Z,20.60
2019-05-09T10:32:09.082Z,20.50
2019-05-09T10:34:37.818Z,20.20
2019-05-09T10:37:07.699Z,20.20
2019-05-09T10:39:38.106Z,20.30
2019-05-09T10:42:13.477Z,20.40
2019-05-09T10:44:45.713Z,20.60
2019-05-09T10:47:15.557Z,20.60
2019-05-09T10:49:43.783Z,20.50
2019-05-09T10:52:14.389Z,20.70
2019-05-09T10:54:41.924Z,20.60
2019-05-09T10:57:10.134Z,20.10
2019-05-09T10:59:38.328Z,19.70
2019-05-09T11:02:09.541Z,19.30
2019-05-09T11:04:37.943Z,18.90
2019-05-09T11:07:08.063Z,18.80
2019-05-09T11:09:38.898Z,18.60
2019-05-09T11:12:07.894Z,18.10
2019-05-09T11:14:37.443Z,17.70
2019-05-09T11:17:14.126Z,17.60
2019-05-09T11:19:35.883Z,17.50
2019-05-09T11:22:04.105Z,17.40
2019-05-09T11:24:43.017Z,17.10
2019-05-09T11:27:02.298Z,16.70
2019-05-09T11:29:30.485Z,16.50
2019-05-09T11:31:58.883Z,16.20
2019-05-09T11:34:27.093Z,15.90
2019-05-09T11:36:57.716Z,15.70
2019-05-09T11:39:35.492Z,15.50
2019-05-09T11:41:55.162Z,15.40
2019-05-09T11:44:23.364Z,15.30
2019-05-09T11:46:51.571Z,15.00
2019-05-09T11:49:19.803Z,14.90
2019-05-09T11:51:48.320Z,15.10
2019-05-09T11:54:19.398Z,15.40
2019-05-09T11:56:48.205Z,15.90
2019-05-09T11:59:18.247Z,16.20
2019-05-09T12:01:48.238Z,16.40
2019-05-09T12:04:18.491Z,16.70
2019-05-09T12:06:46.266Z,16.90
2019-05-09T12:09:15.031Z,17.00
2019-05-09T12:11:44.518Z,16.70
2019-05-09T12:14:13.156Z,16.90
2019-05-09T12:16:41.345Z,17.20
2019-05-09T12:19:09.554Z,17.50
2019-05-09T12:21:46.571Z,17.50
2019-05-09T12:24:09.117Z,17.50
2019-05-09T12:26:39.096Z,17.40
2019-05-09T12:29:08.719Z,17.70
2019-05-09T12:31:38.718Z,18.00
2019-05-09T12:34:09.027Z,18.70
2019-05-09T12:36:39.788Z,19.20
2019-05-09T12:39:08.779Z,19.50
2019-05-09T12:41:38.397Z,19.50
2019-05-09T12:44:08.924Z,19.30
2019-05-09T12:46:39.300Z,19.10
2019-05-09T12:49:08.757Z,19.40
2019-05-09T12:51:37.700Z,19.50
2019-05-09T12:54:08.514Z,19.30
2019-05-09T12:56:38.323Z,19.00
2019-05-09T12:59:05.944Z,18.80
2019-05-09T13:01:39.872Z,18.60
2019-05-09T13:04:09.475Z,18.60
2019-05-09T13:06:38.063Z,18.70
2019-05-09T13:09:08.310Z,18.30
2019-05-09T13:11:38.471Z,18.20
2019-05-09T13:14:09.660Z,18.40
2019-05-09T13:16:50.695Z,18.50
2019-05-09T13:19:21.274Z,18.50
2019-05-09T13:21:49.485Z,18.40
2019-05-09T13:24:19.594Z,18.30
2019-05-09T13:26:49.546Z,18.40
2019-05-09T13:29:17.753Z,18.50
2019-05-09T13:31:48.049Z,18.50
2019-05-09T13:34:18.580Z,18.90
2019-05-09T13:36:48.311Z,19.00
2019-05-09T13:39:17.774Z,18.90
2019-05-09T13:41:47.595Z,19.00
2019-05-09T13:44:17.871Z,18.90
2019-05-09T13:46:45.583Z,18.80
2019-05-09T13:49:15.546Z,18.70
2019-05-09T13:51:51.144Z,18.40
2019-05-09T13:54:13.648Z,18.50
2019-05-09T13:56:41.844Z,18.40
2019-05-09T13:59:10.056Z,18.60
2019-05-09T14:01:38.302Z,18.70
2019-05-09T14:04:07.893Z,18.60
2019-05-09T14:06:38.774Z,18.60
2019-05-09T14:09:10.229Z,18.70
2019-05-09T14:11:37.844Z,18.80
2019-05-09T14:14:06.057Z,18.50
2019-05-09T14:16:34.634Z,18.30
2019-05-09T14:19:24.732Z,18.30
2019-05-09T14:21:32.806Z,18.20
2019-05-09T14:24:11.259Z,18.10
2019-05-09T14:26:30.977Z,18.10
2019-05-09T14:28:59.222Z,18.00
2019-05-09T14:31:32.115Z,18.10
2019-05-09T14:33:57.379Z,18.00
2019-05-09T14:36:27.778Z,18.00
2019-05-09T14:38:57.813Z,17.80
2019-05-09T14:41:27.621Z,17.70
2019-05-09T14:43:55.398Z,17.60
2019-05-09T14:46:23.630Z,17.60
2019-05-09T14:48:51.843Z,17.50
2019-05-09T14:51:20.043Z,17.30
2019-05-09T14:53:48.607Z,17.00
2019-05-09T14:56:16.947Z,16.30
2019-05-09T14:58:45.176Z,15.90
2019-05-09T15:01:13.373Z,15.50
2019-05-09T15:03:41.580Z,15.20
2019-05-09T15:06:09.780Z,15.20
2019-05-09T15:08:38.339Z,15.20
2019-05-09T15:11:09.803Z,15.40
2019-05-09T15:13:36.528Z,15.40
2019-05-09T15:16:04.747Z,15.30
2019-05-09T15:18:32.945Z,15.40
2019-05-09T15:21:01.182Z,15.40
2019-05-09T15:23:29.421Z,15.50
2019-05-09T15:25:58.184Z,15.60
2019-05-09T15:28:28.946Z,15.40
2019-05-09T15:30:59.125Z,15.40
2019-05-09T15:33:27.503Z,15.50
2019-05-09T15:35:58.708Z,15.60
2019-05-09T15:38:25.787Z,15.50
2019-05-09T15:40:54.092Z,15.50
2019-05-09T15:43:22.374Z,15.60
2019-05-09T15:45:57.955Z,15.50
2019-05-09T15:48:27.348Z,15.60
2019-05-09T15:50:54.836Z,15.80
2019-05-09T15:53:23.028Z,15.80
2019-05-09T15:55:51.232Z,16.00
2019-05-09T15:58:19.462Z,16.10
2019-05-09T16:00:47.937Z,16.20
2019-05-09T16:03:18.477Z,16.10
2019-05-09T16:05:47.927Z,16.10
2019-05-09T16:08:18.551Z,16.20
2019-05-09T16:10:45.911Z,16.20
2019-05-09T16:13:14.108Z,16.40
2019-05-09T16:15:42.342Z,16.40
2019-05-09T16:18:10.514Z,16.30
2019-05-09T16:20:41.182Z,16.30
2019-05-09T16:23:08.694Z,16.30
2019-05-09T16:25:38.698Z,16.30
2019-05-09T16:28:08.023Z,16.20
2019-05-09T16:30:38.219Z,16.10
2019-05-09T16:33:08.142Z,16.20
2019-05-09T16:35:38.217Z,15.80
2019-05-09T16:38:10.421Z,15.70
2019-05-09T16:40:38.662Z,15.60
2019-05-09T16:43:09.113Z,15.70
2019-05-09T16:45:37.985Z,15.80
2019-05-09T16:48:11.068Z,15.90
2019-05-09T16:50:38.436Z,16.10
2019-05-09T16:53:08.987Z,16.10
2019-05-09T16:55:38.105Z,16.20
2019-05-09T16:58:08.471Z,16.00
2019-05-09T17:00:47.674Z,15.90
2019-05-09T17:03:17.029Z,15.70
2019-05-09T17:05:45.190Z,15.80
2019-05-09T17:08:13.385Z,15.80
2019-05-09T17:10:41.592Z,15.80
2019-05-09T17:13:09.792Z,15.70
2019-05-09T17:15:38.887Z,15.50
2019-05-09T17:18:07.727Z,15.50
2019-05-09T17:20:50.890Z,15.50
2019-05-09T17:23:29.350Z,15.40
2019-05-09T17:25:57.914Z,15.40
2019-05-09T17:28:28.303Z,15.40
2019-05-09T17:30:57.879Z,15.40
2019-05-09T17:33:28.435Z,15.40
2019-05-09T17:35:57.799Z,15.30
2019-05-09T17:38:27.906Z,15.20
2019-05-09T17:40:57.748Z,15.10
2019-05-09T17:43:27.805Z,15.00
2019-05-09T17:45:58.207Z,15.00
2019-05-09T17:48:28.519Z,15.00
2019-05-09T17:50:57.866Z,15.00
2019-05-09T17:53:28.611Z,14.90
2019-05-09T17:55:58.355Z,14.90
2019-05-09T17:58:30.481Z,14.80
2019-05-09T18:00:57.639Z,14.70
2019-05-09T18:03:25.596Z,14.60
2019-05-09T18:05:53.822Z,14.50
2019-05-09T18:08:22.060Z,14.40
2019-05-09T18:10:50.250Z,14.40
2019-05-09T18:13:23.820Z,14.50
2019-05-09T18:15:48.511Z,14.50
2019-05-09T18:18:18.454Z,14.30
2019-05-09T18:20:46.632Z,14.30
2019-05-09T18:23:14.852Z,14.10
2019-05-09T18:25:43.108Z,14.10
2019-05-09T18:28:11.314Z,14.10
2019-05-09T18:30:39.520Z,14.10
2019-05-09T18:33:09.394Z,14.00
2019-05-09T18:35:38.136Z,14.00
2019-05-09T18:38:07.927Z,13.90
2019-05-09T18:40:36.274Z,13.90
2019-05-09T18:43:04.496Z,13.80
2019-05-09T18:45:32.693Z,13.70
2019-05-09T18:48:00.903Z,13.70
2019-05-09T18:50:29.096Z,13.70
2019-05-09T18:52:57.297Z,13.70
2019-05-09T18:55:25.532Z,13.70
2019-05-09T18:57:53.759Z,13.70
2019-05-09T19:00:21.956Z,13.70
2019-05-09T19:02:50.321Z,13.60
2019-05-09T19:05:18.930Z,13.60
2019-05-09T19:07:47.133Z,13.50
2019-05-09T19:10:15.345Z,13.40
2019-05-09T19:12:43.528Z,13.50
2019-05-09T19:15:17.199Z,13.40
2019-05-09T19:17:50.029Z,13.40
2019-05-09T19:20:22.850Z,13.30
2019-05-09T19:22:51.054Z,13.20
2019-05-09T19:25:19.286Z,13.20
2019-05-09T19:27:47.484Z,13.20
2019-05-09T19:30:15.690Z,13.20
2019-05-09T19:32:43.885Z,13.10
2019-05-09T19:35:12.118Z,13.10
2019-05-09T19:37:40.308Z,13.00
2019-05-09T19:40:08.555Z,13.00
2019-05-09T19:42:36.745Z,13.00
2019-05-09T19:45:07.920Z,13.00
2019-05-09T19:47:36.116Z,13.00
2019-05-09T19:50:05.662Z,13.00
2019-05-09T19:52:38.169Z,12.90
2019-05-09T19:55:04.951Z,12.80
2019-05-09T19:57:33.154Z,12.90
2019-05-09T20:00:01.364Z,12.90
2019-05-09T20:02:29.624Z,12.80
2019-05-09T20:04:57.840Z,12.70
2019-05-09T20:07:26.033Z,12.70
2019-05-09T20:09:55.910Z,12.70
2019-05-09T20:12:31.795Z,12.70
2019-05-09T20:15:00.034Z,12.70
2019-05-09T20:17:28.229Z,12.70
2019-05-09T20:19:56.555Z,12.60
2019-05-09T20:22:24.750Z,12.60
2019-05-09T20:24:52.944Z,12.60
2019-05-09T20:27:21.141Z,12.60
2019-05-09T20:29:49.397Z,12.50
2019-05-09T20:32:17.575Z,12.40
2019-05-09T20:34:45.792Z,12.40
2019-05-09T20:37:13.972Z,12.40
2019-05-09T20:39:42.403Z,12.40
2019-05-09T20:42:10.780Z,12.40
2019-05-09T20:44:39.168Z,12.30
2019-05-09T20:47:07.583Z,12.30
2019-05-09T20:49:35.968Z,12.30
2019-05-09T20:52:04.454Z,12.20
2019-05-09T20:54:32.838Z,12.20
2019-05-09T20:57:01.220Z,12.20
2019-05-09T20:59:29.611Z,12.20
2019-05-09T21:01:58.026Z,12.20
2019-05-09T21:04:26.405Z,12.10
2019-05-09T21:06:54.792Z,12.10
2019-05-09T21:09:23.171Z,12.00
2019-05-09T21:11:51.594Z,12.00
2019-05-09T21:14:20.006Z,12.00
2019-05-09T21:16:48.385Z,11.90
2019-05-09T21:19:16.775Z,11.90
2019-05-09T21:21:45.164Z,11.90
2019-05-09T21:24:13.544Z,11.90
2019-05-09T21:26:41.933Z,11.90
2019-05-09T21:29:10.354Z,11.90
2019-05-09T21:31:38.775Z,11.80
2019-05-09T21:34:07.428Z,11.80
2019-05-09T21:36:35.624Z,11.80
2019-05-09T21:39:05.365Z,11.80
2019-05-09T21:41:33.565Z,11.80
2019-05-09T21:44:01.794Z,11.70
2019-05-09T21:46:29.997Z,11.70
2019-05-09T21:48:58.195Z,11.70
2019-05-09T21:51:26.509Z,11.70
2019-05-09T21:53:54.700Z,11.60
2019-05-09T21:56:22.917Z,11.60
2019-05-09T21:58:51.150Z,11.60
2019-05-09T22:01:19.352Z,11.60
2019-05-09T22:03:47.756Z,11.60
2019-05-09T22:06:15.948Z,11.50
2019-05-09T22:08:44.182Z,11.50
2019-05-09T22:11:12.380Z,11.60
2019-05-09T22:13:40.579Z,11.50
2019-05-09T22:16:08.791Z,11.50
2019-05-09T22:18:37.014Z,11.50
2019-05-09T22:21:05.221Z,11.50
2019-05-09T22:23:33.441Z,11.40
2019-05-09T22:26:01.633Z,11.40
2019-05-09T22:28:29.837Z,11.40
2019-05-09T22:30:58.040Z,11.30
2019-05-09T22:33:26.240Z,11.30
2019-05-09T22:35:54.445Z,11.30
2019-05-09T22:38:22.757Z,11.30
2019-05-09T22:40:50.944Z,11.30
2019-05-09T22:43:19.150Z,11.20
2019-05-09T22:45:47.344Z,11.20
2019-05-09T22:48:15.584Z,11.20
2019-05-09T22:50:43.825Z,11.20
2019-05-09T22:53:12.020Z,11.10
2019-05-09T22:55:40.261Z,11.10
2019-05-09T22:58:08.502Z,11.10
2019-05-09T23:00:36.696Z,11.10
2019-05-09T23:03:04.969Z,11.10
2019-05-09T23:05:33.244Z,11.10
2019-05-09T23:08:01.452Z,11.10
2019-05-09T23:10:29.678Z,11.10
2019-05-09T23:12:57.873Z,11.10
2019-05-09T23:15:26.074Z,11.00
2019-05-09T23:17:54.280Z,11.00
2019-05-09T23:20:30.057Z,11.00
2019-05-09T23:22:59.935Z,11.00
2019-05-09T23:25:28.125Z,10.90
2019-05-09T23:27:56.332Z,10.90
2019-05-09T23:30:24.527Z,10.90
2019-05-09T23:32:52.728Z,10.90
2019-05-09T23:35:20.974Z,10.90
2019-05-09T23:37:49.160Z,10.90
2019-05-09T23:40:17.363Z,10.90
2019-05-09T23:42:45.570Z,10.90
2019-05-09T23:45:13.772Z,10.90
2019-05-09T23:47:42.010Z,10.90
2019-05-09T23:50:10.201Z,10.90
2019-05-09T23:52:38.439Z,10.90
2019-05-09T23:55:24.795Z,10.90
2019-05-09T23:58:10.963Z,10.90
